sensor_id;sensor_type;location;lat;lon;timestamp;temperature;humidity
60717;DHT22;46566;52.700;6.192;2023-08-17T00:02:15;17.10;99.90
60717;DHT22;46566;52.700;6.192;2023-08-17T00:04:41;17.10;99.90
60717;DHT22;46566;52.700;6.192;2023-08-17T00:07:06;17.00;99.90
60717;DHT22;46566;52.700;6.192;2023-08-17T00:09:33;17.00;99.90
60717;DHT22;46566;52.700;6.192;2023-08-17T00:11:58;17.00;99.90
60717;DHT22;46566;52.700;6.192;2023-08-17T00:14:24;17.00;99.90
60717;DHT22;46566;52.700;6.192;2023-08-17T00:16:51;17.00;99.90
60717;DHT22;46566;52.700;6.192;2023-08-17T00:19:17;17.10;99.90
60717;DHT22;46566;52.700;6.192;2023-08-17T00:21:44;17.10;99.90
60717;DHT22;46566;52.700;6.192;2023-08-17T00:24:10;17.10;99.90
60717;DHT22;46566;52.700;6.192;2023-08-17T00:26:35;17.10;99.90
60717;DHT22;46566;52.700;6.192;2023-08-17T00:29:01;17.10;99.90
60717;DHT22;46566;52.700;6.192;2023-08-17T00:31:27;17.10;99.90
60717;DHT22;46566;52.700;6.192;2023-08-17T00:33:53;17.10;99.90
60717;DHT22;46566;52.700;6.192;2023-08-17T00:36:18;17.10;99.90
60717;DHT22;46566;52.700;6.192;2023-08-17T00:38:44;17.10;99.90
60717;DHT22;46566;52.700;6.192;2023-08-17T00:41:10;17.10;99.90
60717;DHT22;46566;52.700;6.192;2023-08-17T00:43:35;17.10;99.90
60717;DHT22;46566;52.700;6.192;2023-08-17T00:46:02;17.10;99.90
60717;DHT22;46566;52.700;6.192;2023-08-17T00:48:28;17.00;99.90
60717;DHT22;46566;52.700;6.192;2023-08-17T00:50:55;17.00;99.90
60717;DHT22;46566;52.700;6.192;2023-08-17T00:53:23;17.00;99.90
60717;DHT22;46566;52.700;6.192;2023-08-17T00:55:50;17.00;99.90
60717;DHT22;46566;52.700;6.192;2023-08-17T00:58:17;16.90;99.90
60717;DHT22;46566;52.700;6.192;2023-08-17T01:00:43;16.90;99.90
60717;DHT22;46566;52.700;6.192;2023-08-17T01:03:09;16.90;99.90
60717;DHT22;46566;52.700;6.192;2023-08-17T01:05:35;16.80;99.90
60717;DHT22;46566;52.700;6.192;2023-08-17T01:08:02;16.70;99.90
60717;DHT22;46566;52.700;6.192;2023-08-17T01:10:41;16.70;99.90
60717;DHT22;46566;52.700;6.192;2023-08-17T01:13:18;16.70;99.90
60717;DHT22;46566;52.700;6.192;2023-08-17T01:15:56;16.70;99.90
60717;DHT22;46566;52.700;6.192;2023-08-17T01:18:29;16.60;99.90
60717;DHT22;46566;52.700;6.192;2023-08-17T01:20:57;16.60;99.90
60717;DHT22;46566;52.700;6.192;2023-08-17T01:23:22;16.70;99.90
60717;DHT22;46566;52.700;6.192;2023-08-17T01:25:48;16.60;99.90
60717;DHT22;46566;52.700;6.192;2023-08-17T01:28:15;16.60;99.90
60717;DHT22;46566;52.700;6.192;2023-08-17T01:30:54;16.60;99.90
60717;DHT22;46566;52.700;6.192;2023-08-17T01:33:35;16.60;99.90
60717;DHT22;46566;52.700;6.192;2023-08-17T01:38:44;16.60;99.90
60717;DHT22;46566;52.700;6.192;2023-08-17T01:41:11;16.60;99.90
60717;DHT22;46566;52.700;6.192;2023-08-17T01:43:41;16.60;99.90
60717;DHT22;46566;52.700;6.192;2023-08-17T01:46:13;16.60;99.90
60717;DHT22;46566;52.700;6.192;2023-08-17T01:48:41;16.60;99.90
60717;DHT22;46566;52.700;6.192;2023-08-17T01:51:07;16.60;99.90
60717;DHT22;46566;52.700;6.192;2023-08-17T01:53:33;16.60;99.90
60717;DHT22;46566;52.700;6.192;2023-08-17T01:55:58;16.60;99.90
60717;DHT22;46566;52.700;6.192;2023-08-17T01:58:24;16.60;99.90
60717;DHT22;46566;52.700;6.192;2023-08-17T02:00:50;16.60;99.90
60717;DHT22;46566;52.700;6.192;2023-08-17T02:03:16;16.50;99.90
60717;DHT22;46566;52.700;6.192;2023-08-17T02:05:45;16.50;99.90
60717;DHT22;46566;52.700;6.192;2023-08-17T02:08:14;16.50;99.90
60717;DHT22;46566;52.700;6.192;2023-08-17T02:10:39;16.50;99.90
60717;DHT22;46566;52.700;6.192;2023-08-17T02:13:05;16.50;99.90
60717;DHT22;46566;52.700;6.192;2023-08-17T02:15:31;16.50;99.90
60717;DHT22;46566;52.700;6.192;2023-08-17T02:18:00;16.50;99.90
60717;DHT22;46566;52.700;6.192;2023-08-17T02:20:26;16.50;99.90
60717;DHT22;46566;52.700;6.192;2023-08-17T02:22:52;16.40;99.90
60717;DHT22;46566;52.700;6.192;2023-08-17T02:25:17;16.30;99.90
60717;DHT22;46566;52.700;6.192;2023-08-17T02:27:43;16.30;99.90
60717;DHT22;46566;52.700;6.192;2023-08-17T02:30:10;16.30;99.90
60717;DHT22;46566;52.700;6.192;2023-08-17T02:32:35;16.30;99.90
60717;DHT22;46566;52.700;6.192;2023-08-17T02:35:01;16.30;99.90
60717;DHT22;46566;52.700;6.192;2023-08-17T02:37:27;16.30;99.90
60717;DHT22;46566;52.700;6.192;2023-08-17T02:39:53;16.30;99.90
60717;DHT22;46566;52.700;6.192;2023-08-17T02:42:19;16.30;99.90
60717;DHT22;46566;52.700;6.192;2023-08-17T02:44:44;16.20;99.90
60717;DHT22;46566;52.700;6.192;2023-08-17T02:47:10;16.20;99.90
60717;DHT22;46566;52.700;6.192;2023-08-17T02:49:36;16.20;99.90
60717;DHT22;46566;52.700;6.192;2023-08-17T02:52:02;16.20;99.90
60717;DHT22;46566;52.700;6.192;2023-08-17T02:54:28;16.20;99.90
60717;DHT22;46566;52.700;6.192;2023-08-17T02:56:53;16.20;99.90
60717;DHT22;46566;52.700;6.192;2023-08-17T02:59:20;16.20;99.90
60717;DHT22;46566;52.700;6.192;2023-08-17T03:01:46;16.20;99.90
60717;DHT22;46566;52.700;6.192;2023-08-17T03:04:13;16.20;99.90
60717;DHT22;46566;52.700;6.192;2023-08-17T03:06:38;16.20;99.90
60717;DHT22;46566;52.700;6.192;2023-08-17T03:09:04;16.20;99.90
60717;DHT22;46566;52.700;6.192;2023-08-17T03:11:30;16.30;99.90
60717;DHT22;46566;52.700;6.192;2023-08-17T03:13:55;16.30;99.90
60717;DHT22;46566;52.700;6.192;2023-08-17T03:16:26;16.30;99.90
60717;DHT22;46566;52.700;6.192;2023-08-17T03:18:53;16.30;99.90
60717;DHT22;46566;52.700;6.192;2023-08-17T03:21:19;16.30;99.90
60717;DHT22;46566;52.700;6.192;2023-08-17T03:23:46;16.30;99.90
60717;DHT22;46566;52.700;6.192;2023-08-17T03:26:12;16.30;99.90
60717;DHT22;46566;52.700;6.192;2023-08-17T03:28:37;16.30;99.90
60717;DHT22;46566;52.700;6.192;2023-08-17T03:31:03;16.30;99.90
60717;DHT22;46566;52.700;6.192;2023-08-17T03:33:29;16.30;99.90
60717;DHT22;46566;52.700;6.192;2023-08-17T03:35:55;16.30;99.90
60717;DHT22;46566;52.700;6.192;2023-08-17T03:38:21;16.30;99.90
60717;DHT22;46566;52.700;6.192;2023-08-17T03:40:47;16.30;99.90
60717;DHT22;46566;52.700;6.192;2023-08-17T03:43:13;16.40;99.90
60717;DHT22;46566;52.700;6.192;2023-08-17T03:45:41;16.40;99.90
60717;DHT22;46566;52.700;6.192;2023-08-17T03:48:07;16.40;99.90
60717;DHT22;46566;52.700;6.192;2023-08-17T03:50:33;16.30;99.90
60717;DHT22;46566;52.700;6.192;2023-08-17T03:52:59;16.30;99.90
60717;DHT22;46566;52.700;6.192;2023-08-17T03:55:24;16.30;99.90
60717;DHT22;46566;52.700;6.192;2023-08-17T03:57:50;16.20;99.90
60717;DHT22;46566;52.700;6.192;2023-08-17T04:00:16;16.20;99.90
60717;DHT22;46566;52.700;6.192;2023-08-17T04:02:42;16.20;99.90
60717;DHT22;46566;52.700;6.192;2023-08-17T04:05:10;16.20;99.90
60717;DHT22;46566;52.700;6.192;2023-08-17T04:07:36;16.20;99.90
60717;DHT22;46566;52.700;6.192;2023-08-17T04:10:05;16.20;99.90
60717;DHT22;46566;52.700;6.192;2023-08-17T04:12:31;16.20;99.90
60717;DHT22;46566;52.700;6.192;2023-08-17T04:14:57;16.20;99.90
60717;DHT22;46566;52.700;6.192;2023-08-17T04:17:23;16.10;99.90
60717;DHT22;46566;52.700;6.192;2023-08-17T04:19:48;16.10;99.90
60717;DHT22;46566;52.700;6.192;2023-08-17T04:22:14;16.10;99.90
60717;DHT22;46566;52.700;6.192;2023-08-17T04:24:40;16.20;99.90
60717;DHT22;46566;52.700;6.192;2023-08-17T04:27:06;16.20;99.90
60717;DHT22;46566;52.700;6.192;2023-08-17T04:29:32;16.10;99.90
60717;DHT22;46566;52.700;6.192;2023-08-17T04:32:01;16.10;99.90
60717;DHT22;46566;52.700;6.192;2023-08-17T04:34:26;16.20;99.90
60717;DHT22;46566;52.700;6.192;2023-08-17T04:36:52;16.10;99.90
60717;DHT22;46566;52.700;6.192;2023-08-17T04:39:18;16.20;99.90
60717;DHT22;46566;52.700;6.192;2023-08-17T04:41:43;16.20;99.90
60717;DHT22;46566;52.700;6.192;2023-08-17T04:44:13;16.20;99.90
60717;DHT22;46566;52.700;6.192;2023-08-17T04:46:39;16.20;99.90
60717;DHT22;46566;52.700;6.192;2023-08-17T04:49:05;16.10;99.90
60717;DHT22;46566;52.700;6.192;2023-08-17T04:51:31;16.10;99.90
60717;DHT22;46566;52.700;6.192;2023-08-17T04:53:57;16.10;99.90
60717;DHT22;46566;52.700;6.192;2023-08-17T04:56:23;16.20;99.90
60717;DHT22;46566;52.700;6.192;2023-08-17T04:58:48;16.20;99.90
60717;DHT22;46566;52.700;6.192;2023-08-17T05:01:15;16.30;99.90
60717;DHT22;46566;52.700;6.192;2023-08-17T05:03:41;16.30;99.90
60717;DHT22;46566;52.700;6.192;2023-08-17T05:06:06;16.30;99.90
60717;DHT22;46566;52.700;6.192;2023-08-17T05:08:32;16.30;99.90
60717;DHT22;46566;52.700;6.192;2023-08-17T05:10:58;16.40;99.90
60717;DHT22;46566;52.700;6.192;2023-08-17T05:13:25;16.40;99.90
60717;DHT22;46566;52.700;6.192;2023-08-17T05:15:52;16.40;99.90
60717;DHT22;46566;52.700;6.192;2023-08-17T05:18:18;16.50;99.90
60717;DHT22;46566;52.700;6.192;2023-08-17T05:20:45;16.50;99.90
60717;DHT22;46566;52.700;6.192;2023-08-17T05:23:11;16.50;99.90
60717;DHT22;46566;52.700;6.192;2023-08-17T05:25:37;16.50;99.90
60717;DHT22;46566;52.700;6.192;2023-08-17T05:28:03;16.50;99.90
60717;DHT22;46566;52.700;6.192;2023-08-17T05:30:29;16.60;99.90
60717;DHT22;46566;52.700;6.192;2023-08-17T05:32:54;16.60;99.90
60717;DHT22;46566;52.700;6.192;2023-08-17T05:35:20;16.60;99.90
60717;DHT22;46566;52.700;6.192;2023-08-17T05:37:46;16.70;99.90
60717;DHT22;46566;52.700;6.192;2023-08-17T05:40:12;16.70;99.90
60717;DHT22;46566;52.700;6.192;2023-08-17T05:42:38;16.80;99.90
60717;DHT22;46566;52.700;6.192;2023-08-17T05:45:04;16.80;99.90
60717;DHT22;46566;52.700;6.192;2023-08-17T05:47:30;16.80;99.90
60717;DHT22;46566;52.700;6.192;2023-08-17T05:49:55;16.90;99.90
60717;DHT22;46566;52.700;6.192;2023-08-17T05:52:21;16.90;99.90
60717;DHT22;46566;52.700;6.192;2023-08-17T05:54:47;16.90;99.90
60717;DHT22;46566;52.700;6.192;2023-08-17T05:57:12;17.00;99.90
60717;DHT22;46566;52.700;6.192;2023-08-17T05:59:38;17.00;99.90
60717;DHT22;46566;52.700;6.192;2023-08-17T06:02:04;17.00;99.90
60717;DHT22;46566;52.700;6.192;2023-08-17T06:04:30;17.10;99.90
60717;DHT22;46566;52.700;6.192;2023-08-17T06:06:56;17.00;99.90
60717;DHT22;46566;52.700;6.192;2023-08-17T06:09:21;17.00;99.90
60717;DHT22;46566;52.700;6.192;2023-08-17T06:11:47;17.00;99.90
60717;DHT22;46566;52.700;6.192;2023-08-17T06:14:13;17.00;99.90
60717;DHT22;46566;52.700;6.192;2023-08-17T06:16:39;17.00;99.90
60717;DHT22;46566;52.700;6.192;2023-08-17T06:19:04;17.00;99.90
60717;DHT22;46566;52.700;6.192;2023-08-17T06:21:30;17.00;99.90
60717;DHT22;46566;52.700;6.192;2023-08-17T06:23:56;17.00;99.90
60717;DHT22;46566;52.700;6.192;2023-08-17T06:26:21;17.00;99.90
60717;DHT22;46566;52.700;6.192;2023-08-17T06:29:13;17.00;99.90
60717;DHT22;46566;52.700;6.192;2023-08-17T06:31:39;17.00;99.90
60717;DHT22;46566;52.700;6.192;2023-08-17T06:34:04;17.10;99.90
60717;DHT22;46566;52.700;6.192;2023-08-17T06:36:31;17.10;99.90
60717;DHT22;46566;52.700;6.192;2023-08-17T06:39:23;17.20;99.90
60717;DHT22;46566;52.700;6.192;2023-08-17T06:41:49;17.30;99.90
60717;DHT22;46566;52.700;6.192;2023-08-17T06:44:14;17.30;99.90
60717;DHT22;46566;52.700;6.192;2023-08-17T06:49:56;17.40;99.90
60717;DHT22;46566;52.700;6.192;2023-08-17T06:52:51;17.40;99.90
60717;DHT22;46566;52.700;6.192;2023-08-17T06:56:08;17.50;99.90
60717;DHT22;46566;52.700;6.192;2023-08-17T06:58:34;17.50;99.90
60717;DHT22;46566;52.700;6.192;2023-08-17T07:01:00;17.50;99.90
60717;DHT22;46566;52.700;6.192;2023-08-17T07:03:25;17.60;99.90
60717;DHT22;46566;52.700;6.192;2023-08-17T07:06:10;17.50;99.90
60717;DHT22;46566;52.700;6.192;2023-08-17T07:08:36;17.60;99.90
60717;DHT22;46566;52.700;6.192;2023-08-17T07:11:01;17.60;99.90
60717;DHT22;46566;52.700;6.192;2023-08-17T07:13:29;17.70;99.90
60717;DHT22;46566;52.700;6.192;2023-08-17T07:16:20;17.70;99.90
60717;DHT22;46566;52.700;6.192;2023-08-17T07:18:46;17.70;99.90
60717;DHT22;46566;52.700;6.192;2023-08-17T07:21:12;17.70;99.90
60717;DHT22;46566;52.700;6.192;2023-08-17T07:23:38;17.80;99.90
60717;DHT22;46566;52.700;6.192;2023-08-17T07:29:20;18.00;99.90
60717;DHT22;46566;52.700;6.192;2023-08-17T07:32:05;18.10;99.90
60717;DHT22;46566;52.700;6.192;2023-08-17T07:34:31;18.10;99.90
60717;DHT22;46566;52.700;6.192;2023-08-17T07:36:57;18.30;99.90
60717;DHT22;46566;52.700;6.192;2023-08-17T07:39:23;18.30;99.90
60717;DHT22;46566;52.700;6.192;2023-08-17T07:42:14;18.40;99.90
60717;DHT22;46566;52.700;6.192;2023-08-17T07:44:40;18.50;99.90
60717;DHT22;46566;52.700;6.192;2023-08-17T07:47:06;18.50;99.90
60717;DHT22;46566;52.700;6.192;2023-08-17T07:49:31;18.50;99.90
60717;DHT22;46566;52.700;6.192;2023-08-17T07:52:22;18.50;99.90
60717;DHT22;46566;52.700;6.192;2023-08-17T07:54:48;18.60;99.90
60717;DHT22;46566;52.700;6.192;2023-08-17T07:57:14;18.60;99.90
60717;DHT22;46566;52.700;6.192;2023-08-17T07:59:40;18.60;99.90
60717;DHT22;46566;52.700;6.192;2023-08-17T08:02:31;18.50;99.90
60717;DHT22;46566;52.700;6.192;2023-08-17T08:05:20;18.50;99.90
60717;DHT22;46566;52.700;6.192;2023-08-17T08:08:11;18.60;99.90
60717;DHT22;46566;52.700;6.192;2023-08-17T08:10:37;18.60;99.90
60717;DHT22;46566;52.700;6.192;2023-08-17T08:13:03;18.60;99.90
60717;DHT22;46566;52.700;6.192;2023-08-17T08:15:29;18.60;99.90
60717;DHT22;46566;52.700;6.192;2023-08-17T08:18:21;18.60;99.90
60717;DHT22;46566;52.700;6.192;2023-08-17T08:20:48;18.60;99.90
60717;DHT22;46566;52.700;6.192;2023-08-17T08:23:14;18.60;99.90
60717;DHT22;46566;52.700;6.192;2023-08-17T08:25:40;18.70;99.90
60717;DHT22;46566;52.700;6.192;2023-08-17T08:28:32;18.70;99.90
60717;DHT22;46566;52.700;6.192;2023-08-17T08:31:02;18.80;99.90
60717;DHT22;46566;52.700;6.192;2023-08-17T08:33:29;18.90;99.90
60717;DHT22;46566;52.700;6.192;2023-08-17T08:36:20;19.00;99.90
60717;DHT22;46566;52.700;6.192;2023-08-17T08:38:46;19.20;99.90
60717;DHT22;46566;52.700;6.192;2023-08-17T08:41:12;19.20;99.90
60717;DHT22;46566;52.700;6.192;2023-08-17T08:43:41;19.30;99.90
60717;DHT22;46566;52.700;6.192;2023-08-17T08:46:32;19.50;99.90
60717;DHT22;46566;52.700;6.192;2023-08-17T08:48:59;19.60;99.90
60717;DHT22;46566;52.700;6.192;2023-08-17T08:51:27;19.80;99.90
60717;DHT22;46566;52.700;6.192;2023-08-17T08:54:20;20.00;99.90
60717;DHT22;46566;52.700;6.192;2023-08-17T08:57:08;20.20;99.90
60717;DHT22;46566;52.700;6.192;2023-08-17T08:59:58;20.60;99.90
60717;DHT22;46566;52.700;6.192;2023-08-17T09:02:24;21.00;99.90
60717;DHT22;46566;52.700;6.192;2023-08-17T09:04:50;21.00;99.90
60717;DHT22;46566;52.700;6.192;2023-08-17T09:07:18;20.80;99.90
60717;DHT22;46566;52.700;6.192;2023-08-17T09:10:10;20.80;99.90
60717;DHT22;46566;52.700;6.192;2023-08-17T09:12:36;20.80;99.90
60717;DHT22;46566;52.700;6.192;2023-08-17T09:15:02;20.80;99.90
60717;DHT22;46566;52.700;6.192;2023-08-17T09:17:28;20.90;99.90
60717;DHT22;46566;52.700;6.192;2023-08-17T09:23:09;20.90;99.90
60717;DHT22;46566;52.700;6.192;2023-08-17T09:26:05;20.90;99.90
60717;DHT22;46566;52.700;6.192;2023-08-17T09:28:31;20.70;99.90
60717;DHT22;46566;52.700;6.192;2023-08-17T09:30:58;20.60;99.90
60717;DHT22;46566;52.700;6.192;2023-08-17T09:33:49;20.50;99.90
60717;DHT22;46566;52.700;6.192;2023-08-17T09:36:23;20.40;99.90
60717;DHT22;46566;52.700;6.192;2023-08-17T09:38:50;20.30;99.90
60717;DHT22;46566;52.700;6.192;2023-08-17T09:41:38;20.30;99.90
60717;DHT22;46566;52.700;6.192;2023-08-17T09:44:06;20.30;99.90
60717;DHT22;46566;52.700;6.192;2023-08-17T09:46:32;20.20;99.90
60717;DHT22;46566;52.700;6.192;2023-08-17T09:49:04;20.20;99.90
60717;DHT22;46566;52.700;6.192;2023-08-17T09:51:57;20.20;99.90
60717;DHT22;46566;52.700;6.192;2023-08-17T09:54:24;20.20;99.90
60717;DHT22;46566;52.700;6.192;2023-08-17T09:56:53;20.20;99.90
60717;DHT22;46566;52.700;6.192;2023-08-17T10:02:23;20.40;99.90
60717;DHT22;46566;52.700;6.192;2023-08-17T10:05:19;20.60;99.90
60717;DHT22;46566;52.700;6.192;2023-08-17T10:07:52;20.70;99.90
60717;DHT22;46566;52.700;6.192;2023-08-17T10:10:26;20.80;99.90
60717;DHT22;46566;52.700;6.192;2023-08-17T10:13:32;20.90;99.90
60717;DHT22;46566;52.700;6.192;2023-08-17T10:19:05;21.00;99.90
60717;DHT22;46566;52.700;6.192;2023-08-17T10:21:46;21.00;99.90
60717;DHT22;46566;52.700;6.192;2023-08-17T10:24:38;21.00;99.90
60717;DHT22;46566;52.700;6.192;2023-08-17T10:27:05;20.90;99.90
60717;DHT22;46566;52.700;6.192;2023-08-17T10:29:32;20.90;99.90
60717;DHT22;46566;52.700;6.192;2023-08-17T10:32:26;20.80;99.90
60717;DHT22;46566;52.700;6.192;2023-08-17T10:34:54;20.70;99.90
60717;DHT22;46566;52.700;6.192;2023-08-17T10:37:21;20.60;99.90
60717;DHT22;46566;52.700;6.192;2023-08-17T10:40:11;20.60;99.90
60717;DHT22;46566;52.700;6.192;2023-08-17T10:42:37;20.60;99.90
60717;DHT22;46566;52.700;6.192;2023-08-17T10:45:50;20.60;99.90
60717;DHT22;46566;52.700;6.192;2023-08-17T10:50:58;20.50;99.90
60717;DHT22;46566;52.700;6.192;2023-08-17T10:53:43;20.50;99.90
60717;DHT22;46566;52.700;6.192;2023-08-17T10:56:13;20.50;99.90
60717;DHT22;46566;52.700;6.192;2023-08-17T10:58:42;20.60;99.90
60717;DHT22;46566;52.700;6.192;2023-08-17T11:01:08;20.70;99.90
60717;DHT22;46566;52.700;6.192;2023-08-17T11:04:18;20.80;99.90
60717;DHT22;46566;52.700;6.192;2023-08-17T11:06:44;20.90;99.90
60717;DHT22;46566;52.700;6.192;2023-08-17T11:09:29;21.00;99.90
60717;DHT22;46566;52.700;6.192;2023-08-17T11:11:54;21.00;99.90
60717;DHT22;46566;52.700;6.192;2023-08-17T11:14:20;21.10;99.90
60717;DHT22;46566;52.700;6.192;2023-08-17T11:16:49;21.10;99.90
60717;DHT22;46566;52.700;6.192;2023-08-17T11:19:39;21.10;99.90
60717;DHT22;46566;52.700;6.192;2023-08-17T11:22:05;21.10;99.90
60717;DHT22;46566;52.700;6.192;2023-08-17T11:24:31;21.10;99.90
60717;DHT22;46566;52.700;6.192;2023-08-17T11:26:57;21.20;99.90
60717;DHT22;46566;52.700;6.192;2023-08-17T11:29:49;21.20;99.90
60717;DHT22;46566;52.700;6.192;2023-08-17T11:32:17;21.30;99.90
60717;DHT22;46566;52.700;6.192;2023-08-17T11:34:43;21.40;99.90
60717;DHT22;46566;52.700;6.192;2023-08-17T11:37:11;21.40;99.90
60717;DHT22;46566;52.700;6.192;2023-08-17T11:40:03;21.50;99.90
60717;DHT22;46566;52.700;6.192;2023-08-17T11:42:30;21.50;99.90
60717;DHT22;46566;52.700;6.192;2023-08-17T11:44:56;21.60;99.90
60717;DHT22;46566;52.700;6.192;2023-08-17T11:47:48;21.60;99.90
60717;DHT22;46566;52.700;6.192;2023-08-17T11:50:14;21.60;99.90
60717;DHT22;46566;52.700;6.192;2023-08-17T11:52:40;21.60;99.90
60717;DHT22;46566;52.700;6.192;2023-08-17T11:55:08;21.70;99.90
60717;DHT22;46566;52.700;6.192;2023-08-17T11:57:55;21.60;99.90
60717;DHT22;46566;52.700;6.192;2023-08-17T12:00:21;21.60;99.90
60717;DHT22;46566;52.700;6.192;2023-08-17T12:02:48;21.40;99.90
60717;DHT22;46566;52.700;6.192;2023-08-17T12:05:19;21.40;99.90
60717;DHT22;46566;52.700;6.192;2023-08-17T12:11:00;21.40;99.90
60717;DHT22;46566;52.700;6.192;2023-08-17T12:13:56;21.50;99.90
60717;DHT22;46566;52.700;6.192;2023-08-17T12:16:24;21.40;99.90
60717;DHT22;46566;52.700;6.192;2023-08-17T12:18:51;21.40;99.90
60717;DHT22;46566;52.700;6.192;2023-08-17T12:21:43;21.30;99.90
60717;DHT22;46566;52.700;6.192;2023-08-17T12:24:09;21.20;99.90
60717;DHT22;46566;52.700;6.192;2023-08-17T12:26:41;21.20;99.90
60717;DHT22;46566;52.700;6.192;2023-08-17T12:29:34;21.30;99.90
60717;DHT22;46566;52.700;6.192;2023-08-17T12:32:03;21.30;99.90
60717;DHT22;46566;52.700;6.192;2023-08-17T12:34:30;21.30;99.90
60717;DHT22;46566;52.700;6.192;2023-08-17T12:37:21;21.40;99.90
60717;DHT22;46566;52.700;6.192;2023-08-17T12:39:47;21.50;99.90
60717;DHT22;46566;52.700;6.192;2023-08-17T12:42:14;21.60;99.90
60717;DHT22;46566;52.700;6.192;2023-08-17T12:44:41;21.60;99.90
60717;DHT22;46566;52.700;6.192;2023-08-17T12:47:28;21.70;99.90
60717;DHT22;46566;52.700;6.192;2023-08-17T12:53:25;21.80;99.90
60717;DHT22;46566;52.700;6.192;2023-08-17T12:55:51;21.80;99.90
60717;DHT22;46566;52.700;6.192;2023-08-17T12:58:16;21.70;99.90
60717;DHT22;46566;52.700;6.192;2023-08-17T13:01:08;21.70;99.90
60717;DHT22;46566;52.700;6.192;2023-08-17T13:03:34;21.70;99.90
60717;DHT22;46566;52.700;6.192;2023-08-17T13:06:00;21.60;99.90
60717;DHT22;46566;52.700;6.192;2023-08-17T13:08:26;21.60;99.90
60717;DHT22;46566;52.700;6.192;2023-08-17T13:11:17;21.50;99.90
60717;DHT22;46566;52.700;6.192;2023-08-17T13:13:43;21.50;99.90
60717;DHT22;46566;52.700;6.192;2023-08-17T13:16:09;21.50;99.90
60717;DHT22;46566;52.700;6.192;2023-08-17T13:19:02;21.50;99.90
60717;DHT22;46566;52.700;6.192;2023-08-17T13:21:28;21.60;99.90
60717;DHT22;46566;52.700;6.192;2023-08-17T13:23:54;21.50;99.90
60717;DHT22;46566;52.700;6.192;2023-08-17T13:26:24;21.50;99.90
60717;DHT22;46566;52.700;6.192;2023-08-17T13:29:15;21.50;99.90
60717;DHT22;46566;52.700;6.192;2023-08-17T13:31:41;21.50;99.90
60717;DHT22;46566;52.700;6.192;2023-08-17T13:34:07;21.60;99.90
60717;DHT22;46566;52.700;6.192;2023-08-17T13:36:32;21.60;99.90
60717;DHT22;46566;52.700;6.192;2023-08-17T13:39:17;21.70;99.90
60717;DHT22;46566;52.700;6.192;2023-08-17T13:41:43;21.70;99.90
60717;DHT22;46566;52.700;6.192;2023-08-17T13:44:08;21.70;99.90
60717;DHT22;46566;52.700;6.192;2023-08-17T13:46:34;21.80;99.90
60717;DHT22;46566;52.700;6.192;2023-08-17T13:49:00;21.80;99.90
60717;DHT22;46566;52.700;6.192;2023-08-17T13:51:51;21.80;99.90
60717;DHT22;46566;52.700;6.192;2023-08-17T13:54:16;21.70;99.90
60717;DHT22;46566;52.700;6.192;2023-08-17T13:56:42;21.80;99.90
60717;DHT22;46566;52.700;6.192;2023-08-17T13:59:08;21.80;99.90
60717;DHT22;46566;52.700;6.192;2023-08-17T14:01:59;21.70;99.90
60717;DHT22;46566;52.700;6.192;2023-08-17T14:04:24;21.70;99.90
60717;DHT22;46566;52.700;6.192;2023-08-17T14:06:50;21.80;99.90
60717;DHT22;46566;52.700;6.192;2023-08-17T14:12:08;21.80;99.90
60717;DHT22;46566;52.700;6.192;2023-08-17T14:14:34;21.90;99.90
60717;DHT22;46566;52.700;6.192;2023-08-17T14:17:00;21.90;99.90
60717;DHT22;46566;52.700;6.192;2023-08-17T14:19:53;21.90;99.90
60717;DHT22;46566;52.700;6.192;2023-08-17T14:22:20;21.80;99.90
60717;DHT22;46566;52.700;6.192;2023-08-17T14:24:45;21.70;99.90
60717;DHT22;46566;52.700;6.192;2023-08-17T14:27:11;21.70;99.90
60717;DHT22;46566;52.700;6.192;2023-08-17T14:30:02;21.70;99.90
60717;DHT22;46566;52.700;6.192;2023-08-17T14:32:29;21.60;99.90
60717;DHT22;46566;52.700;6.192;2023-08-17T14:34:55;21.50;99.90
60717;DHT22;46566;52.700;6.192;2023-08-17T14:37:20;21.50;99.90
60717;DHT22;46566;52.700;6.192;2023-08-17T14:40:12;21.50;99.90
60717;DHT22;46566;52.700;6.192;2023-08-17T14:42:39;21.60;99.90
60717;DHT22;46566;52.700;6.192;2023-08-17T14:45:05;21.70;99.90
60717;DHT22;46566;52.700;6.192;2023-08-17T14:47:30;21.70;99.90
60717;DHT22;46566;52.700;6.192;2023-08-17T14:50:21;21.70;99.90
60717;DHT22;46566;52.700;6.192;2023-08-17T14:52:47;21.60;99.90
60717;DHT22;46566;52.700;6.192;2023-08-17T14:55:12;21.60;99.90
60717;DHT22;46566;52.700;6.192;2023-08-17T14:57:39;21.50;99.90
60717;DHT22;46566;52.700;6.192;2023-08-17T15:00:24;21.50;99.90
60717;DHT22;46566;52.700;6.192;2023-08-17T15:02:50;21.50;99.90
60717;DHT22;46566;52.700;6.192;2023-08-17T15:05:15;21.50;99.90
60717;DHT22;46566;52.700;6.192;2023-08-17T15:07:41;21.60;99.90
60717;DHT22;46566;52.700;6.192;2023-08-17T15:10:33;21.60;99.90
60717;DHT22;46566;52.700;6.192;2023-08-17T15:12:59;21.50;99.90
60717;DHT22;46566;52.700;6.192;2023-08-17T15:15:25;21.50;99.90
60717;DHT22;46566;52.700;6.192;2023-08-17T15:17:51;21.50;99.90
60717;DHT22;46566;52.700;6.192;2023-08-17T15:23:29;21.50;99.90
60717;DHT22;46566;52.700;6.192;2023-08-17T15:29:08;21.30;99.90
60717;DHT22;46566;52.700;6.192;2023-08-17T15:31:59;21.30;99.90
60717;DHT22;46566;52.700;6.192;2023-08-17T15:40:09;21.30;99.90
60717;DHT22;46566;52.700;6.192;2023-08-17T15:45:31;21.20;99.90
60717;DHT22;46566;52.700;6.192;2023-08-17T15:53:50;21.10;99.90
60717;DHT22;46566;52.700;6.192;2023-08-17T15:56:16;21.10;99.90
60717;DHT22;46566;52.700;6.192;2023-08-17T16:01:36;20.90;99.90
60717;DHT22;46566;52.700;6.192;2023-08-17T16:04:02;20.80;99.90
60717;DHT22;46566;52.700;6.192;2023-08-17T16:09:22;20.80;99.90
60717;DHT22;46566;52.700;6.192;2023-08-17T16:11:48;20.70;99.90
60717;DHT22;46566;52.700;6.192;2023-08-17T16:14:14;20.70;99.90
60717;DHT22;46566;52.700;6.192;2023-08-17T16:17:05;20.70;99.90
60717;DHT22;46566;52.700;6.192;2023-08-17T16:19:31;20.70;99.90
60717;DHT22;46566;52.700;6.192;2023-08-17T16:21:57;20.60;99.90
60717;DHT22;46566;52.700;6.192;2023-08-17T16:24:23;20.60;99.90
60717;DHT22;46566;52.700;6.192;2023-08-17T16:29:40;20.60;99.90
60717;DHT22;46566;52.700;6.192;2023-08-17T16:32:06;20.60;99.90
60717;DHT22;46566;52.700;6.192;2023-08-17T16:34:32;20.60;99.90
60717;DHT22;46566;52.700;6.192;2023-08-17T16:37:16;20.60;99.90
60717;DHT22;46566;52.700;6.192;2023-08-17T16:39:44;20.60;99.90
60717;DHT22;46566;52.700;6.192;2023-08-17T16:42:10;20.60;99.90
60717;DHT22;46566;52.700;6.192;2023-08-17T16:44:35;20.50;99.90
60717;DHT22;46566;52.700;6.192;2023-08-17T16:47:26;20.50;99.90
60717;DHT22;46566;52.700;6.192;2023-08-17T16:49:52;20.50;99.90
60717;DHT22;46566;52.700;6.192;2023-08-17T16:52:19;20.40;99.90